»·PEaware :: N799DS KSNA-KCRQ

N799DS :: KSNA-KCRQ

FLIGHT INFORMATION

Flight Status: Arrived
Operator: Privately registered:
United States
More flights under this callsign
Pilot: Wolfgang B. (15069)
Aircraft: CESSNA 172 SKYHAWK
(C172)
More flights by this aircraft type
Origin: KSNA John Wayne-Orange Co
United States
Destination: KCRQ McClellan-Palomar
United States
More flights between these airports :: More routes between these airports
Route: +V23 OCN
File this flight plan on PilotEdge
Remarks:
Altitude:
(Current/Filed)
5,000ft
Speed:
(Current/Filed)
115kts
Departed: 13-Apr-17 05:52 PM
Arrived: 13-Apr-17 06:47 PM
Distance/Time
Traveled:
44nm/0:54
Distance/Time
To Go:
Arrived

Flight Plot

Page will automatically refresh every two minutes.


Map Options




Map Legend


Flown Route
Filed Route
Departure Airport
Arrival Airport
Navaid (VOR, NDB)
Fix

Horizontal Profiles

Position Reports

Time Latitude Longitude Heading Altitude Ground
Speed
13-Apr-17 17:18 33.668040 -117.875353 206 60ft 0kts
13-Apr-17 17:19 33.668040 -117.875353 206 60ft 0kts
13-Apr-17 17:20 33.668040 -117.875353 206 60ft 0kts
13-Apr-17 17:21 33.668040 -117.875353 206 60ft 0kts
13-Apr-17 17:22 33.668040 -117.875353 206 60ft 0kts
13-Apr-17 17:23 33.668040 -117.875353 206 60ft 0kts
13-Apr-17 17:24 33.668040 -117.875353 206 60ft 0kts
13-Apr-17 17:25 33.668040 -117.875353 206 60ft 0kts
13-Apr-17 17:26 33.668040 -117.875353 206 60ft 0kts
13-Apr-17 17:27 33.668040 -117.875353 206 60ft 0kts
13-Apr-17 17:28 33.668040 -117.875353 206 60ft 0kts
13-Apr-17 17:29 33.668040 -117.875353 206 60ft 0kts
13-Apr-17 17:30 33.668040 -117.875353 206 60ft 0kts
13-Apr-17 17:31 33.668040 -117.875353 206 60ft 0kts
13-Apr-17 17:32 33.668040 -117.875353 206 60ft 0kts
13-Apr-17 17:33 33.668040 -117.875353 206 60ft 0kts
13-Apr-17 17:34 33.668040 -117.875353 206 60ft 0kts
13-Apr-17 17:35 33.668040 -117.875353 206 60ft 0kts
13-Apr-17 17:36 33.668040 -117.875353 206 60ft 0kts
13-Apr-17 17:37 33.668040 -117.875353 206 60ft 0kts
13-Apr-17 17:38 33.668040 -117.875353 206 60ft 0kts
13-Apr-17 17:39 33.668040 -117.875353 206 60ft 0kts
13-Apr-17 17:40 33.668040 -117.875353 206 60ft 0kts
13-Apr-17 17:41 33.668040 -117.875353 206 60ft 0kts
13-Apr-17 17:42 33.668018 -117.875367 211 60ft 3kts
13-Apr-17 17:43 33.667500 -117.875323 75 60ft 0kts
13-Apr-17 17:44 33.668756 -117.874690 14 60ft 25kts
13-Apr-17 17:45 33.673068 -117.871944 39 60ft 24kts
13-Apr-17 17:46 33.678259 -117.868735 29 60ft 38kts
13-Apr-17 17:47 33.681798 -117.866612 48 60ft 18kts
13-Apr-17 17:48 33.681973 -117.866184 71 60ft 0kts
13-Apr-17 17:49 33.681973 -117.866184 72 60ft 0kts
13-Apr-17 17:50 33.681973 -117.866183 73 60ft 0kts
13-Apr-17 17:51 33.681973 -117.866183 73 60ft 0kts
13-Apr-17 17:52 33.681616 -117.865359 169 60ft 4kts
13-Apr-17 17:53 33.668303 -117.869086 187 613ft 72kts
13-Apr-17 17:54 33.647486 -117.869375 185 1637ft 78kts
13-Apr-17 17:55 33.626314 -117.870222 185 2643ft 78kts
13-Apr-17 17:56 33.606271 -117.870237 187 3522ft 78kts
13-Apr-17 17:57 33.592508 -117.865899 124 4074ft 95kts
13-Apr-17 17:58 33.586396 -117.850469 115 4598ft 91kts
13-Apr-17 17:59 33.577345 -117.827390 120 4999ft 104kts
13-Apr-17 18:00 33.567109 -117.802828 119 5068ft 117kts
13-Apr-17 18:01 33.553954 -117.781751 137 5083ft 101kts
13-Apr-17 18:02 33.542886 -117.763511 131 5080ft 105kts
13-Apr-17 18:03 33.527492 -117.740014 134 5065ft 125kts
13-Apr-17 18:04 33.511021 -117.718288 140 5063ft 123kts
13-Apr-17 18:05 33.494219 -117.698181 141 5063ft 123kts
13-Apr-17 18:06 33.475560 -117.678040 145 5061ft 123kts
13-Apr-17 18:07 33.455816 -117.657135 146 5062ft 123kts
13-Apr-17 18:08 33.433239 -117.634354 147 5056ft 124kts
13-Apr-17 18:09 33.407667 -117.608511 146 5060ft 125kts
13-Apr-17 18:10 33.381263 -117.581012 144 5051ft 122kts
13-Apr-17 18:11 33.357782 -117.555093 143 5052ft 126kts
13-Apr-17 18:12 33.330878 -117.526177 143 5048ft 131kts
13-Apr-17 18:13 33.306711 -117.494759 139 5048ft 126kts
13-Apr-17 18:14 33.282178 -117.464933 140 5058ft 126kts
13-Apr-17 18:15 33.260125 -117.438526 139 5058ft 126kts
13-Apr-17 18:16 33.243798 -117.419008 138 5059ft 127kts
13-Apr-17 18:17 33.239512 -117.395038 94 5060ft 131kts
13-Apr-17 18:18 33.237070 -117.360142 96 4011ft 137kts
13-Apr-17 18:19 33.234988 -117.328781 94 4007ft 101kts
13-Apr-17 18:20 33.233315 -117.301848 94 3971ft 125kts
13-Apr-17 18:21 33.231762 -117.276643 94 3958ft 126kts
13-Apr-17 18:22 33.229932 -117.252893 95 3643ft 124kts
13-Apr-17 18:23 33.228195 -117.229668 94 3709ft 115kts
13-Apr-17 18:24 33.227063 -117.212714 94 3661ft 88kts
13-Apr-17 18:25 33.225680 -117.195127 97 3547ft 108kts
13-Apr-17 18:26 33.223920 -117.172809 95 3548ft 117kts
13-Apr-17 18:27 33.222371 -117.151849 94 3532ft 119kts
13-Apr-17 18:28 33.220779 -117.130776 96 3533ft 119kts
13-Apr-17 18:29 33.219200 -117.109930 93 3536ft 119kts
13-Apr-17 18:30 33.217464 -117.087683 98 3532ft 119kts
13-Apr-17 18:31 33.215988 -117.065703 95 3533ft 119kts
13-Apr-17 18:32 33.214170 -117.044472 106 3516ft 120kts
13-Apr-17 18:33 33.200661 -117.034022 205 3467ft 105kts
13-Apr-17 18:34 33.188405 -117.045871 227 3447ft 98kts
13-Apr-17 18:35 33.178238 -117.055975 224 3477ft 81kts
13-Apr-17 18:36 33.168070 -117.065351 227 3582ft 78kts
13-Apr-17 18:37 33.161330 -117.076331 251 3593ft 83kts
13-Apr-17 18:38 33.158376 -117.089460 259 3474ft 78kts
13-Apr-17 18:39 33.156568 -117.103051 261 3437ft 76kts
13-Apr-17 18:40 33.154362 -117.115921 263 3172ft 78kts
13-Apr-17 18:41 33.152446 -117.132054 262 2860ft 78kts
13-Apr-17 18:42 33.148548 -117.157685 260 2373ft 79kts
13-Apr-17 18:43 33.144400 -117.181920 260 1986ft 74kts
13-Apr-17 18:44 33.140012 -117.207915 259 1501ft 82kts
13-Apr-17 18:45 33.135877 -117.233366 260 1038ft 81kts
13-Apr-17 18:46 33.132153 -117.256304 261 608ft 60kts
13-Apr-17 18:47 33.129151 -117.274993 261 319ft 53kts
13-Apr-17 18:48 33.127016 -117.283332 221 312ft 4kts
13-Apr-17 18:49 33.126863 -117.283569 76 312ft 0kts
13-Apr-17 18:50 33.127153 -117.281587 82 312ft 25kts
13-Apr-17 18:51 33.126659 -117.277465 165 309ft 19kts
13-Apr-17 18:52 33.126071 -117.277403 206 309ft 0kts
13-Apr-17 18:53 33.126071 -117.277403 206 309ft 0kts
13-Apr-17 18:54 33.126071 -117.277403 206 309ft 0kts
13-Apr-17 18:55 33.126071 -117.277403 206 309ft 0kts
13-Apr-17 18:56 33.126071 -117.277403 206 309ft 0kts
13-Apr-17 18:57 33.126071 -117.277403 206 309ft 0kts
13-Apr-17 18:58 33.126071 -117.277403 206 309ft 0kts
13-Apr-17 18:59 33.126071 -117.277403 206 309ft 0kts
13-Apr-17 19:00 33.126071 -117.277403 206 309ft 0kts
13-Apr-17 19:01 33.126071 -117.277403 206 309ft 0kts
13-Apr-17 19:02 33.126071 -117.277403 206 309ft 0kts

Navigation Log

Ident Type
Flight plan parsing failed, navigation log unavailable